Tiverton, Rhode Island
Current Conditions -  °F | °C
As of 10:53 PM on Thursday 18 Dec 2014 (Local Time) from KUUU Reporting Station
Scattered Clouds Scattered Clouds  
Wind Chill: 29°   Ceiling: Unl
Heat Index: 35°   Visibility: 10mi
Dew Point: 27°   Wind: 8mph
Humidity: 72%   Direction: 300°WNW
Pressure: 29.88"   Gusts: NA
Location:  41.62°N, 71.21°W
Report Text: KUUU 190353Z AUTO 30007KT 10SM SCT029 02/M03 A2988 RMK AO2 SLP119 T00171028
Loading
Personal Weather Stations






























Interactive Weather Map New forecast layout! Learn more

10-Day Weather Forecast

Advertisements
Track Severe Weather on mobile